createdAt,value
2022-12-22T00:01:57.161Z,15.70
2022-12-22T00:04:43.134Z,15.80
2022-12-22T00:07:30.557Z,14.67
2022-12-22T00:10:16.378Z,16.40
2022-12-22T00:13:02.441Z,14.57
2022-12-22T00:15:52.617Z,16.07
2022-12-22T00:18:39.185Z,15.50
2022-12-22T00:21:25.030Z,15.83
2022-12-22T00:24:12.129Z,16.17
2022-12-22T00:26:58.065Z,15.87
2022-12-22T00:29:45.913Z,14.87
2022-12-22T00:32:32.738Z,15.43
2022-12-22T00:35:18.820Z,14.63
2022-12-22T00:38:04.906Z,15.50
2022-12-22T00:40:52.413Z,12.67
2022-12-22T00:43:38.272Z,14.63
2022-12-22T00:46:24.069Z,13.50
2022-12-22T00:49:10.003Z,14.20
2022-12-22T00:51:56.034Z,14.43
2022-12-22T00:54:42.547Z,14.77
2022-12-22T00:57:37.215Z,13.90
2022-12-22T01:00:25.020Z,14.20
2022-12-22T01:03:11.092Z,14.63
2022-12-22T01:05:57.286Z,14.70
2022-12-22T01:08:43.240Z,14.87
2022-12-22T01:11:29.137Z,15.80
2022-12-22T01:14:16.239Z,14.40
2022-12-22T01:17:02.109Z,13.83
2022-12-22T01:19:48.297Z,16.60
2022-12-22T01:22:39.348Z,15.90
2022-12-22T01:25:31.773Z,16.30
2022-12-22T01:28:17.512Z,16.57
2022-12-22T01:31:05.057Z,16.70
2022-12-22T01:33:51.023Z,17.43
2022-12-22T01:36:36.963Z,16.40
2022-12-22T01:39:22.697Z,16.87
2022-12-22T01:42:08.723Z,18.27
2022-12-22T01:44:54.510Z,16.90
2022-12-22T01:47:59.657Z,17.50
2022-12-22T01:50:50.149Z,16.50
2022-12-22T01:53:41.435Z,17.90
2022-12-22T01:56:27.894Z,17.77
2022-12-22T01:59:18.080Z,17.77
2022-12-22T02:02:04.474Z,20.27
2022-12-22T02:05:06.396Z,18.10
2022-12-22T02:08:15.246Z,18.30
2022-12-22T02:11:31.981Z,18.33
2022-12-22T02:14:30.765Z,17.33
2022-12-22T02:17:29.989Z,17.53
2022-12-22T02:20:44.323Z,15.83
2022-12-22T02:23:37.810Z,15.77
2022-12-22T02:26:42.897Z,15.93
2022-12-22T02:29:31.127Z,16.60
2022-12-22T02:32:17.492Z,15.67
2022-12-22T02:35:03.467Z,15.27
2022-12-22T02:38:03.674Z,15.27
2022-12-22T02:41:00.797Z,17.00
2022-12-22T02:44:10.387Z,16.00
2022-12-22T02:47:03.528Z,15.90
2022-12-22T02:49:57.804Z,14.40
2022-12-22T02:52:50.344Z,14.63
2022-12-22T02:55:36.381Z,15.33
2022-12-22T02:58:22.519Z,14.20
2022-12-22T03:01:10.175Z,14.87
2022-12-22T03:03:56.194Z,13.90
2022-12-22T03:06:42.254Z,12.20
2022-12-22T03:09:28.120Z,11.30
2022-12-22T03:12:13.727Z,13.50
2022-12-22T03:14:59.648Z,13.40
2022-12-22T03:17:46.641Z,15.47
2022-12-22T03:20:32.283Z,14.57
2022-12-22T03:23:23.827Z,16.33
2022-12-22T03:25:53.202Z,14.67
2022-12-22T03:28:23.250Z,13.40
2022-12-22T03:30:57.923Z,14.30
2022-12-22T03:33:28.763Z,12.87
2022-12-22T03:35:57.135Z,14.07
2022-12-22T03:38:26.104Z,15.40
2022-12-22T03:40:54.771Z,14.17
2022-12-22T03:43:40.661Z,13.87
2022-12-22T03:46:30.573Z,13.33
2022-12-22T03:49:12.747Z,13.90
2022-12-22T03:51:44.616Z,14.03
2022-12-22T03:54:15.293Z,14.63
2022-12-22T03:56:44.247Z,15.70
2022-12-22T03:59:12.715Z,15.00
2022-12-22T04:01:44.082Z,15.67
2022-12-22T04:04:15.840Z,14.97
2022-12-22T04:06:44.619Z,16.37
2022-12-22T04:09:13.736Z,16.30
2022-12-22T04:12:08.207Z,16.73
2022-12-22T04:14:36.970Z,16.30
2022-12-22T04:17:06.146Z,18.13
2022-12-22T04:19:35.866Z,18.57
2022-12-22T04:22:04.278Z,17.67
2022-12-22T04:24:32.636Z,18.23
2022-12-22T04:27:01.008Z,16.60
2022-12-22T04:29:29.322Z,19.50
2022-12-22T04:31:57.640Z,21.37
2022-12-22T04:34:25.947Z,19.47
2022-12-22T04:37:00.492Z,19.60
2022-12-22T04:39:32.822Z,17.67
2022-12-22T04:42:01.057Z,17.57
2022-12-22T04:44:29.486Z,16.73
2022-12-22T04:46:57.746Z,16.60
2022-12-22T04:49:26.042Z,15.93
2022-12-22T04:51:55.733Z,17.63
2022-12-22T04:54:24.014Z,15.87
2022-12-22T04:56:52.654Z,16.63
2022-12-22T04:59:21.027Z,16.43
2022-12-22T05:01:49.477Z,16.13
2022-12-22T05:04:23.477Z,15.27
2022-12-22T05:06:52.319Z,15.97
2022-12-22T05:09:22.085Z,15.83
2022-12-22T05:11:50.378Z,15.77
2022-12-22T05:14:18.755Z,17.63
2022-12-22T05:16:47.187Z,17.77
2022-12-22T05:19:15.580Z,16.33
2022-12-22T05:21:43.884Z,16.20
2022-12-22T05:24:12.124Z,16.97
2022-12-22T05:26:41.821Z,15.40
2022-12-22T05:29:10.138Z,16.80
2022-12-22T05:31:41.844Z,18.23
2022-12-22T05:34:15.185Z,15.67
2022-12-22T05:36:43.459Z,16.70
2022-12-22T05:39:11.700Z,17.33
2022-12-22T05:41:41.334Z,16.37
2022-12-22T05:44:09.722Z,18.13
2022-12-22T05:46:38.231Z,17.07
2022-12-22T05:49:06.574Z,17.47
2022-12-22T05:51:34.848Z,17.20
2022-12-22T05:54:03.141Z,17.40
2022-12-22T05:56:31.404Z,17.10
2022-12-22T05:59:01.178Z,16.80
2022-12-22T06:01:29.631Z,18.03
2022-12-22T06:04:00.576Z,18.27
2022-12-22T06:06:29.501Z,17.57
2022-12-22T06:08:57.834Z,18.47
2022-12-22T06:11:26.155Z,18.43
2022-12-22T06:13:54.439Z,18.23
2022-12-22T06:16:25.047Z,21.40
2022-12-22T06:18:53.414Z,18.10
2022-12-22T06:21:21.743Z,18.23
2022-12-22T06:23:50.021Z,17.80
2022-12-22T06:26:18.299Z,17.40
2022-12-22T06:28:46.628Z,17.87
2022-12-22T06:31:15.019Z,16.80
2022-12-22T06:33:45.475Z,18.37
2022-12-22T06:36:13.875Z,18.13
2022-12-22T06:38:42.096Z,16.40
2022-12-22T06:41:10.604Z,18.47
2022-12-22T06:43:37.994Z,18.10
2022-12-22T06:46:06.625Z,16.60
2022-12-22T06:48:34.927Z,17.10
2022-12-22T06:51:04.763Z,19.17
2022-12-22T06:53:33.107Z,17.77
2022-12-22T06:56:01.403Z,18.13
2022-12-22T06:58:29.747Z,18.10
2022-12-22T07:00:58.237Z,18.57
2022-12-22T07:03:26.719Z,19.67
2022-12-22T07:05:55.305Z,20.27
2022-12-22T07:08:25.024Z,18.30
2022-12-22T07:10:59.220Z,18.30
2022-12-22T07:13:30.061Z,17.23
2022-12-22T07:16:01.047Z,18.90
2022-12-22T07:18:32.516Z,17.90
2022-12-22T07:21:02.913Z,16.73
2022-12-22T07:23:33.026Z,16.40
2022-12-22T07:26:02.245Z,15.67
2022-12-22T07:28:33.235Z,17.93
2022-12-22T07:31:01.880Z,15.83
2022-12-22T07:33:30.412Z,14.17
2022-12-22T07:36:09.018Z,14.60
2022-12-22T07:38:42.361Z,15.47
2022-12-22T07:41:26.220Z,15.50
2022-12-22T07:43:55.350Z,15.20
2022-12-22T07:46:25.504Z,15.60
2022-12-22T07:49:11.232Z,15.30
2022-12-22T07:51:42.285Z,16.67
2022-12-22T07:54:15.260Z,15.63
2022-12-22T07:56:44.831Z,16.10
2022-12-22T07:59:13.794Z,16.03
2022-12-22T08:01:42.504Z,16.43
2022-12-22T08:04:11.543Z,17.93
2022-12-22T08:06:40.446Z,18.30
2022-12-22T08:09:14.319Z,18.93
2022-12-22T08:11:42.678Z,16.17
2022-12-22T08:14:11.122Z,17.77
2022-12-22T08:16:39.402Z,16.47
2022-12-22T08:19:07.793Z,16.57
2022-12-22T08:21:36.278Z,16.83
2022-12-22T08:24:04.835Z,17.37
2022-12-22T08:26:39.353Z,18.50
2022-12-22T08:29:13.026Z,18.10
2022-12-22T08:31:42.623Z,16.10
2022-12-22T08:34:15.101Z,15.97
2022-12-22T08:36:47.947Z,15.50
2022-12-22T08:39:17.057Z,15.30
2022-12-22T08:41:52.896Z,15.23
2022-12-22T08:44:24.180Z,13.93
2022-12-22T08:46:53.879Z,13.73
2022-12-22T08:49:22.711Z,12.93
2022-12-22T08:51:51.808Z,13.30
2022-12-22T08:54:20.891Z,13.03
2022-12-22T08:56:51.368Z,12.30
2022-12-22T08:59:19.859Z,12.10
2022-12-22T09:01:50.873Z,12.10
2022-12-22T09:04:22.341Z,12.93
2022-12-22T09:06:53.514Z,13.87
2022-12-22T09:09:22.107Z,12.93
2022-12-22T09:11:51.937Z,12.60
2022-12-22T09:14:20.434Z,12.60
2022-12-22T09:16:48.883Z,13.10
2022-12-22T09:19:17.377Z,14.07
2022-12-22T09:21:46.223Z,14.30
2022-12-22T09:24:15.002Z,13.70
2022-12-22T09:26:43.800Z,14.17
2022-12-22T09:29:15.362Z,14.70
2022-12-22T09:31:44.141Z,14.07
2022-12-22T09:34:17.488Z,14.60
2022-12-22T09:36:47.749Z,14.03
2022-12-22T09:39:17.059Z,13.60
2022-12-22T09:41:49.591Z,14.90
2022-12-22T09:44:26.387Z,13.73
2022-12-22T09:46:57.482Z,13.37
2022-12-22T09:49:26.592Z,13.87
2022-12-22T09:52:01.109Z,12.80
2022-12-22T09:54:31.089Z,12.83
2022-12-22T09:56:59.898Z,13.80
2022-12-22T09:59:31.273Z,13.27
2022-12-22T10:02:16.791Z,13.80
2022-12-22T10:05:11.933Z,13.67
2022-12-22T10:07:42.794Z,15.37
2022-12-22T10:10:25.404Z,15.53
2022-12-22T10:12:55.548Z,14.90
2022-12-22T10:15:26.203Z,15.07
2022-12-22T10:18:08.977Z,13.30
2022-12-22T10:20:39.873Z,11.73
2022-12-22T10:23:18.930Z,13.60
2022-12-22T10:29:01.966Z,10.90
2022-12-22T10:31:34.082Z,11.70
2022-12-22T10:34:14.149Z,12.73
2022-12-22T10:36:47.835Z,12.57
2022-12-22T10:39:23.443Z,12.00
2022-12-22T10:41:56.297Z,12.40
2022-12-22T10:44:28.782Z,11.87
2022-12-22T10:47:01.357Z,12.13
2022-12-22T10:52:14.184Z,12.00
2022-12-22T10:54:44.679Z,12.10
2022-12-22T10:57:30.104Z,12.50
2022-12-22T11:00:00.638Z,13.10
2022-12-22T11:02:38.047Z,14.40
2022-12-22T11:05:09.884Z,14.17
2022-12-22T11:07:40.205Z,12.80
2022-12-22T11:10:25.838Z,13.90
2022-12-22T11:13:21.340Z,13.57
2022-12-22T11:16:00.154Z,13.67
2022-12-22T11:18:48.747Z,13.90
2022-12-22T11:21:24.530Z,14.87
2022-12-22T11:24:02.836Z,13.73
2022-12-22T11:26:43.206Z,14.43
2022-12-22T11:29:34.327Z,13.47
2022-12-22T11:32:25.562Z,11.60
2022-12-22T11:35:03.208Z,12.13
2022-12-22T11:37:43.400Z,12.77
2022-12-22T11:40:28.897Z,12.33
2022-12-22T11:43:21.724Z,11.73
2022-12-22T11:46:03.426Z,14.00
2022-12-22T11:49:29.023Z,13.13
2022-12-22T11:52:14.624Z,13.07
2022-12-22T11:55:01.078Z,15.23
2022-12-22T11:57:40.095Z,17.20
2022-12-22T12:00:11.608Z,15.77
2022-12-22T12:03:16.793Z,17.17
2022-12-22T12:06:14.537Z,18.63
2022-12-22T12:09:03.241Z,19.90
2022-12-22T12:11:40.332Z,21.20
2022-12-22T12:14:23.188Z,20.20
2022-12-22T12:16:59.863Z,21.20
2022-12-22T12:20:04.149Z,22.50
2022-12-22T12:22:55.322Z,20.97
2022-12-22T12:25:32.920Z,23.63
2022-12-22T12:28:25.137Z,25.37
2022-12-22T12:30:58.583Z,29.47
2022-12-22T12:33:40.034Z,34.10
2022-12-22T12:36:15.645Z,29.57
2022-12-22T12:39:11.921Z,29.60
2022-12-22T12:41:55.299Z,28.50
2022-12-22T12:44:29.170Z,29.57
2022-12-22T12:47:24.763Z,30.17
2022-12-22T12:50:30.723Z,27.27
2022-12-22T12:53:17.579Z,26.90
2022-12-22T12:56:02.533Z,23.37
2022-12-22T12:58:57.957Z,24.17
2022-12-22T13:02:01.074Z,25.40
2022-12-22T13:05:03.068Z,23.60
2022-12-22T13:08:24.151Z,25.40
2022-12-22T13:12:10.513Z,24.23
2022-12-22T13:15:01.379Z,22.33
2022-12-22T13:17:49.020Z,22.73
2022-12-22T13:20:28.879Z,21.77
2022-12-22T13:23:00.277Z,21.30
2022-12-22T13:25:42.626Z,24.70
2022-12-22T13:28:17.202Z,22.60
2022-12-22T13:30:50.371Z,23.13
2022-12-22T13:33:25.035Z,26.17
2022-12-22T13:35:58.863Z,23.70
2022-12-22T13:38:30.488Z,25.17
2022-12-22T13:41:00.935Z,22.30
2022-12-22T13:43:31.777Z,30.53
2022-12-22T13:46:04.281Z,21.60
2022-12-22T13:48:44.799Z,22.43
2022-12-22T13:51:21.037Z,21.87
2022-12-22T13:54:10.305Z,20.93
2022-12-22T13:56:45.508Z,22.37
2022-12-22T13:59:28.980Z,22.33
2022-12-22T14:02:03.076Z,19.80
2022-12-22T14:04:32.086Z,18.83
2022-12-22T14:07:12.724Z,21.50
2022-12-22T14:09:45.874Z,20.90
2022-12-22T14:12:18.544Z,20.03
2022-12-22T14:14:49.714Z,20.10
2022-12-22T14:17:26.676Z,19.83
2022-12-22T14:19:58.337Z,20.07
2022-12-22T14:22:30.486Z,21.03
2022-12-22T14:25:04.991Z,19.50
2022-12-22T14:27:45.087Z,18.83
2022-12-22T14:30:19.516Z,18.33
2022-12-22T14:32:55.221Z,16.83
2022-12-22T14:35:31.682Z,17.90
2022-12-22T14:38:21.513Z,16.00
2022-12-22T14:40:56.440Z,17.00
2022-12-22T14:43:31.391Z,16.50
2022-12-22T14:46:07.814Z,14.80
2022-12-22T14:48:41.511Z,13.60
2022-12-22T14:51:10.150Z,15.57
2022-12-22T14:53:46.464Z,14.20
2022-12-22T14:56:17.822Z,13.37
2022-12-22T14:58:48.339Z,12.83
2022-12-22T15:01:21.962Z,13.70
2022-12-22T15:04:06.864Z,13.40
2022-12-22T15:06:40.016Z,12.17
2022-12-22T15:12:18.859Z,11.80
2022-12-22T15:14:49.125Z,11.13
2022-12-22T15:17:23.812Z,11.33
2022-12-22T15:19:58.822Z,10.20
2022-12-22T15:22:27.240Z,10.43
2022-12-22T15:24:55.606Z,10.90
2022-12-22T15:27:23.958Z,9.83
2022-12-22T15:29:52.239Z,10.30
2022-12-22T15:32:20.628Z,11.17
2022-12-22T15:34:49.001Z,11.10
2022-12-22T15:37:18.826Z,11.13
2022-12-22T15:39:47.479Z,10.93
2022-12-22T15:42:15.778Z,11.17
2022-12-22T15:44:44.142Z,11.50
2022-12-22T15:47:13.689Z,11.50
2022-12-22T15:49:42.139Z,11.40
2022-12-22T15:52:14.682Z,11.90
2022-12-22T15:54:44.715Z,11.70
2022-12-22T15:57:15.389Z,11.87
2022-12-22T15:59:43.844Z,11.73
2022-12-22T16:02:13.859Z,11.10
2022-12-22T16:04:42.621Z,11.80
2022-12-22T16:07:13.288Z,11.97
2022-12-22T16:09:47.067Z,11.47
2022-12-22T16:12:18.624Z,11.90
2022-12-22T16:14:51.547Z,11.87
2022-12-22T16:17:22.839Z,11.03
2022-12-22T16:19:51.453Z,12.30
2022-12-22T16:22:30.658Z,12.33
2022-12-22T16:25:03.025Z,11.37
2022-12-22T16:27:32.200Z,10.53
2022-12-22T16:30:00.551Z,11.47
2022-12-22T16:32:32.028Z,11.57
2022-12-22T16:35:15.180Z,11.13
2022-12-22T16:37:43.702Z,11.47
2022-12-22T16:40:14.220Z,10.60
2022-12-22T16:45:37.989Z,11.57
2022-12-22T16:48:13.049Z,11.30
2022-12-22T16:50:47.922Z,10.33
2022-12-22T16:53:16.730Z,12.27
2022-12-22T16:55:46.580Z,12.13
2022-12-22T16:58:14.877Z,12.03
2022-12-22T17:00:45.840Z,11.13
2022-12-22T17:03:17.363Z,12.00
2022-12-22T17:05:49.644Z,11.60
2022-12-22T17:08:23.650Z,11.87
2022-12-22T17:10:55.251Z,12.60
2022-12-22T17:13:24.076Z,11.70
2022-12-22T17:15:52.401Z,12.80
2022-12-22T17:18:23.147Z,13.87
2022-12-22T17:20:53.875Z,14.07
2022-12-22T17:23:32.768Z,12.70
2022-12-22T17:26:06.715Z,12.60
2022-12-22T17:28:36.684Z,13.13
2022-12-22T17:31:05.310Z,12.90
2022-12-22T17:33:33.639Z,12.73
2022-12-22T17:36:02.669Z,14.43
2022-12-22T17:38:31.068Z,13.97
2022-12-22T17:41:00.975Z,15.67
2022-12-22T17:43:30.690Z,13.50
2022-12-22T17:45:58.939Z,14.90
2022-12-22T17:48:27.234Z,14.50
2022-12-22T17:50:55.723Z,13.60
2022-12-22T17:53:24.096Z,15.00
2022-12-22T17:56:09.322Z,13.77
2022-12-22T17:58:39.417Z,13.10
2022-12-22T18:01:07.979Z,13.07
2022-12-22T18:03:36.405Z,13.87
2022-12-22T18:06:05.580Z,12.33
2022-12-22T18:08:33.944Z,13.87
2022-12-22T18:11:03.279Z,12.60
2022-12-22T18:13:31.709Z,13.60
2022-12-22T18:16:01.434Z,13.40
2022-12-22T18:18:29.936Z,13.20
2022-12-22T18:21:06.451Z,12.60
2022-12-22T18:23:37.567Z,12.70
2022-12-22T18:26:08.378Z,11.93
2022-12-22T18:28:37.379Z,12.03
2022-12-22T18:31:07.511Z,12.17
2022-12-22T18:33:35.976Z,10.03
2022-12-22T18:36:04.458Z,12.80
2022-12-22T18:38:36.172Z,13.70
2022-12-22T18:41:04.783Z,13.03
2022-12-22T18:43:33.095Z,13.93
2022-12-22T18:46:01.568Z,13.63
2022-12-22T18:48:31.244Z,14.47
2022-12-22T18:50:59.685Z,16.60
2022-12-22T18:53:30.688Z,13.40
2022-12-22T18:55:59.993Z,11.67
2022-12-22T18:58:29.332Z,10.80
2022-12-22T19:00:58.236Z,10.10
2022-12-22T19:03:30.889Z,12.20
2022-12-22T19:05:59.893Z,10.60
2022-12-22T19:08:31.235Z,11.53
2022-12-22T19:11:04.672Z,12.07
2022-12-22T19:13:36.224Z,15.77
2022-12-22T19:16:05.635Z,12.40
2022-12-22T19:18:35.404Z,13.53
2022-12-22T19:21:03.772Z,11.20
2022-12-22T19:23:32.051Z,12.03
2022-12-22T19:26:08.460Z,10.50
2022-12-22T19:28:41.363Z,11.33
2022-12-22T19:31:17.168Z,11.13
2022-12-22T19:33:47.166Z,11.50
2022-12-22T19:36:19.756Z,12.03
2022-12-22T19:38:50.850Z,10.10
2022-12-22T19:41:33.792Z,8.77
2022-12-22T19:44:02.450Z,9.20
2022-12-22T19:46:35.065Z,11.10
2022-12-22T19:49:04.819Z,10.07
2022-12-22T19:51:33.100Z,9.30
2022-12-22T19:54:01.444Z,9.23
2022-12-22T19:56:30.926Z,10.00
2022-12-22T19:59:01.895Z,9.87
2022-12-22T20:01:30.468Z,12.00
2022-12-22T20:03:58.939Z,10.83
2022-12-22T20:06:28.589Z,9.27
2022-12-22T20:09:01.578Z,10.63
2022-12-22T20:11:30.263Z,8.47
2022-12-22T20:13:58.636Z,9.17
2022-12-22T20:16:27.004Z,9.20
2022-12-22T20:18:55.314Z,9.13
2022-12-22T20:21:30.517Z,10.60
2022-12-22T20:24:01.477Z,9.07
2022-12-22T20:26:29.916Z,8.13
2022-12-22T20:28:58.326Z,7.03
2022-12-22T20:31:27.522Z,7.80
2022-12-22T20:33:55.917Z,7.40
2022-12-22T20:36:30.034Z,8.27
2022-12-22T20:39:01.257Z,7.97
2022-12-22T20:41:29.665Z,6.57
2022-12-22T20:43:57.932Z,7.20
2022-12-22T20:46:29.940Z,6.47
2022-12-22T20:49:01.624Z,8.17
2022-12-22T20:51:34.323Z,6.20
2022-12-22T20:54:02.843Z,7.40
2022-12-22T20:56:34.027Z,7.23
2022-12-22T20:59:13.065Z,7.40
2022-12-22T21:01:41.567Z,7.30
2022-12-22T21:04:10.123Z,7.50
2022-12-22T21:06:43.901Z,8.17
2022-12-22T21:09:13.566Z,8.87
2022-12-22T21:11:41.834Z,9.93
2022-12-22T21:14:11.663Z,9.50
2022-12-22T21:16:41.305Z,9.00
2022-12-22T21:19:16.202Z,8.10
2022-12-22T21:21:46.011Z,7.77
2022-12-22T21:24:14.524Z,9.90
2022-12-22T21:26:48.122Z,7.90
2022-12-22T21:29:22.386Z,8.60
2022-12-22T21:31:50.740Z,8.73
2022-12-22T21:34:20.531Z,8.80
2022-12-22T21:36:57.248Z,8.00
2022-12-22T21:39:31.432Z,7.97
2022-12-22T21:42:04.622Z,8.40
2022-12-22T21:44:36.413Z,9.03
2022-12-22T21:47:05.347Z,8.40
2022-12-22T21:49:34.894Z,9.00
2022-12-22T21:52:04.787Z,8.03
2022-12-22T21:54:33.101Z,9.33
2022-12-22T21:57:01.469Z,9.23
2022-12-22T21:59:29.932Z,8.97
2022-12-22T22:01:58.438Z,9.07
2022-12-22T22:04:27.249Z,9.70
2022-12-22T22:06:55.793Z,10.37
2022-12-22T22:09:25.504Z,8.83
2022-12-22T22:12:11.244Z,9.40
2022-12-22T22:14:39.824Z,9.27
2022-12-22T22:17:08.103Z,9.53
2022-12-22T22:19:36.650Z,8.60
2022-12-22T22:22:05.018Z,8.47
2022-12-22T22:24:34.837Z,9.83
2022-12-22T22:27:03.217Z,8.67
2022-12-22T22:29:31.540Z,9.20
2022-12-22T22:31:59.883Z,10.03
2022-12-22T22:34:28.161Z,9.30
2022-12-22T22:36:56.641Z,10.50
2022-12-22T22:39:25.617Z,11.47
2022-12-22T22:41:55.315Z,11.50
2022-12-22T22:44:23.855Z,11.77
2022-12-22T22:46:52.217Z,11.27
2022-12-22T22:49:26.192Z,11.87
2022-12-22T22:51:56.594Z,10.50
2022-12-22T22:54:25.161Z,10.90
2022-12-22T22:56:55.329Z,9.87
2022-12-22T22:59:26.007Z,12.63
2022-12-22T23:01:54.355Z,10.50
2022-12-22T23:04:22.808Z,11.50
2022-12-22T23:06:51.224Z,10.33
2022-12-22T23:09:19.811Z,10.43
2022-12-22T23:11:48.075Z,10.20
2022-12-22T23:14:17.842Z,11.00
2022-12-22T23:16:46.293Z,9.43
2022-12-22T23:19:14.975Z,9.93
2022-12-22T23:21:44.907Z,8.90
2022-12-22T23:24:13.482Z,10.10
2022-12-22T23:26:41.849Z,8.87
2022-12-22T23:29:10.275Z,8.50
2022-12-22T23:31:39.956Z,8.30
2022-12-22T23:34:08.317Z,7.80
2022-12-22T23:36:36.663Z,9.30
2022-12-22T23:39:05.886Z,8.30
2022-12-22T23:41:34.592Z,8.67
2022-12-22T23:44:02.891Z,9.63
2022-12-22T23:46:31.237Z,9.70
2022-12-22T23:49:00.975Z,7.90
2022-12-22T23:51:30.729Z,9.60
2022-12-22T23:54:01.467Z,9.67
2022-12-22T23:56:30.559Z,9.30
2022-12-22T23:58:59.513Z,10.50
